Time;durP1;ratioP1;P1;durP2;ratioP2;P2;SDS_P1;SDS_P2;PMS_P1;PMS_P2;Temp;Humidity;BMP_temperature;BMP_pressure;BME280_temperature;BME280_humidity;BME280_pressure;Samples;Min_cycle;Max_cycle;Signal;HPM_P1;HPM_P2
2021/10/09 00:01:27;;;;;;;16.50;14.40;;;12.00;95.20;;;;;;4807030;29;20053;-80
2021/10/09 00:03:52;;;;;;;18.17;15.48;;;11.90;95.30;;;;;;4792502;29;20039;-81
2021/10/09 00:06:19;;;;;;;17.65;15.00;;;11.90;95.20;;;;;;4792212;29;20051;-81
2021/10/09 00:08:45;;;;;;;16.85;14.57;;;11.90;95.30;;;;;;4790862;29;20120;-81
2021/10/09 00:11:19;;;;;;;17.13;15.20;;;11.90;95.20;;;;;;4792991;29;20062;-81
2021/10/09 00:13:46;;;;;;;18.75;15.60;;;11.90;95.30;;;;;;4791799;29;20079;-81
2021/10/09 00:16:12;;;;;;;16.65;14.70;;;11.80;95.30;;;;;;4791835;29;20055;-81
2021/10/09 00:18:38;;;;;;;16.88;14.20;;;11.80;95.10;;;;;;4792075;29;20054;-81
2021/10/09 00:21:04;;;;;;;20.67;16.05;;;11.80;94.90;;;;;;4792377;29;20039;-81
2021/10/09 00:23:29;;;;;;;19.20;15.68;;;11.80;94.90;;;;;;4791258;29;20400;-81
2021/10/09 00:25:56;;;;;;;18.00;15.18;;;11.80;95.00;;;;;;4792213;29;20047;-81
2021/10/09 00:28:22;;;;;;;18.45;14.82;;;11.80;95.00;;;;;;4792715;29;20053;-82
2021/10/09 00:30:48;;;;;;;20.65;17.13;;;11.70;95.00;;;;;;4791598;29;20085;-81
2021/10/09 00:33:13;;;;;;;17.60;15.40;;;11.70;95.10;;;;;;4792020;29;20119;-82
2021/10/09 00:35:39;;;;;;;18.42;14.88;;;11.70;95.20;;;;;;4791766;29;20043;-81
2021/10/09 00:38:04;;;;;;;19.95;16.75;;;11.70;95.20;;;;;;4792108;29;20115;-81
2021/10/09 00:40:30;;;;;;;19.48;16.80;;;11.70;95.20;;;;;;4791651;29;20050;-81
2021/10/09 00:42:56;;;;;;;20.52;17.40;;;11.70;95.40;;;;;;4792750;29;20051;-81
2021/10/09 00:45:21;;;;;;;20.08;17.27;;;11.70;95.50;;;;;;4791614;29;20050;-81
2021/10/09 00:47:47;;;;;;;19.95;17.20;;;11.60;95.50;;;;;;4791584;29;20082;-82
2021/10/09 00:50:12;;;;;;;20.98;16.95;;;11.60;95.60;;;;;;4791264;29;20042;-81
2021/10/09 00:52:39;;;;;;;20.77;17.35;;;11.60;95.50;;;;;;4792295;29;20051;-82
2021/10/09 00:55:06;;;;;;;22.38;17.30;;;11.70;95.60;;;;;;4792055;29;20065;-82
2021/10/09 00:57:34;;;;;;;21.60;18.17;;;11.70;95.50;;;;;;4791516;29;20039;-82
2021/10/09 01:00:01;;;;;;;22.92;17.38;;;11.70;95.60;;;;;;4791057;29;20192;-82
2021/10/09 01:02:26;;;;;;;21.50;17.55;;;11.70;95.60;;;;;;4791884;29;20043;-82
2021/10/09 01:04:52;;;;;;;21.52;16.65;;;11.60;95.50;;;;;;4790898;29;20127;-82
2021/10/09 01:07:19;;;;;;;21.05;17.83;;;11.60;95.50;;;;;;4790659;29;20054;-82
2021/10/09 01:09:46;;;;;;;22.08;17.73;;;11.60;95.50;;;;;;4790968;29;20835;-81
2021/10/09 01:12:15;;;;;;;21.27;17.05;;;11.60;95.40;;;;;;4790942;29;20139;-82
2021/10/09 01:14:42;;;;;;;21.48;17.58;;;11.60;95.30;;;;;;4790982;29;20138;-82
2021/10/09 01:17:12;;;;;;;21.30;18.20;;;11.60;95.20;;;;;;4790923;29;20151;-82
2021/10/09 01:19:38;;;;;;;20.65;16.98;;;11.50;95.40;;;;;;4790379;29;20476;-82
2021/10/09 01:22:04;;;;;;;20.70;17.45;;;11.50;95.40;;;;;;4791376;29;20047;-82
2021/10/09 01:24:30;;;;;;;23.42;17.63;;;11.50;95.30;;;;;;4791188;29;20504;-81
2021/10/09 01:26:55;;;;;;;20.63;17.65;;;11.40;95.30;;;;;;4790072;29;20076;-82
2021/10/09 01:29:21;;;;;;;21.15;17.35;;;11.40;95.30;;;;;;4790948;29;20077;-82
2021/10/09 01:31:47;;;;;;;21.75;18.20;;;11.40;95.30;;;;;;4790713;29;20049;-82
2021/10/09 01:34:12;;;;;;;20.13;16.85;;;11.40;95.30;;;;;;4790172;29;20053;-82
2021/10/09 01:36:40;;;;;;;22.73;18.67;;;11.40;95.20;;;;;;4790517;29;20130;-82
2021/10/09 01:39:08;;;;;;;22.85;18.58;;;11.30;95.30;;;;;;4790774;29;20046;-81
2021/10/09 01:41:41;;;;;;;21.10;17.45;;;11.30;95.40;;;;;;4790075;29;20055;-81
2021/10/09 01:44:07;;;;;;;21.20;18.13;;;11.30;95.20;;;;;;4790923;29;20404;-82
2021/10/09 01:46:36;;;;;;;22.40;18.15;;;11.30;95.40;;;;;;4789054;29;20115;-82
2021/10/09 01:49:04;;;;;;;22.45;17.80;;;11.30;95.40;;;;;;4790931;29;20058;-81
2021/10/09 01:51:30;;;;;;;20.10;17.50;;;11.30;95.40;;;;;;4790194;29;20054;-81
2021/10/09 01:53:56;;;;;;;21.20;17.23;;;11.20;95.20;;;;;;4790028;29;20047;-81
2021/10/09 01:56:22;;;;;;;22.60;17.95;;;11.20;95.20;;;;;;4790716;29;20424;-81
2021/10/09 01:58:48;;;;;;;21.23;17.95;;;11.20;95.20;;;;;;4790175;29;20043;-81
2021/10/09 02:01:14;;;;;;;21.90;17.27;;;11.20;95.20;;;;;;4789619;29;20059;-81
2021/10/09 02:03:39;;;;;;;21.58;18.48;;;11.20;95.20;;;;;;4790836;29;20111;-81
2021/10/09 02:06:05;;;;;;;23.17;18.13;;;11.10;95.10;;;;;;4790081;29;20054;-81
2021/10/09 02:08:30;;;;;;;21.95;17.40;;;11.10;95.20;;;;;;4805827;29;20473;-81
2021/10/09 02:11:02;;;;;;;21.52;17.55;;;11.10;95.20;;;;;;4791052;29;20454;-81
2021/10/09 02:16:51;;;;;;;22.85;19.30;;;11.00;95.20;;;;;;4789179;29;20087;-81
2021/10/09 02:26:51;;;;;;;22.83;18.90;;;11.00;95.60;;;;;;4790581;29;20145;-81
2021/10/09 02:29:17;;;;;;;21.65;18.48;;;11.00;95.60;;;;;;4789660;29;20062;-81
2021/10/09 02:31:43;;;;;;;21.63;17.88;;;11.00;95.50;;;;;;4789763;29;20468;-81
2021/10/09 02:34:08;;;;;;;24.63;19.20;;;11.00;95.70;;;;;;4790968;29;20043;-81
2021/10/09 02:36:34;;;;;;;22.95;19.13;;;11.00;95.70;;;;;;4789072;29;20087;-82
2021/10/09 02:39:00;;;;;;;23.67;19.23;;;11.00;95.80;;;;;;4790366;29;20059;-81
2021/10/09 02:41:25;;;;;;;21.58;17.45;;;11.00;95.90;;;;;;4789966;29;20055;-81
2021/10/09 02:43:51;;;;;;;22.52;18.42;;;10.90;95.80;;;;;;4789867;29;20253;-81
2021/10/09 02:46:16;;;;;;;23.38;18.48;;;10.90;95.80;;;;;;4789831;29;20122;-81
2021/10/09 02:48:42;;;;;;;23.67;19.08;;;10.90;95.60;;;;;;4790443;29;20454;-81
2021/10/09 02:51:08;;;;;;;25.00;20.55;;;10.90;95.80;;;;;;4789637;29;20055;-81
2021/10/09 02:53:33;;;;;;;22.50;18.55;;;10.90;95.90;;;;;;4789755;29;20500;-81
2021/10/09 02:55:59;;;;;;;21.48;18.27;;;10.90;95.90;;;;;;4789252;29;20049;-81
2021/10/09 02:58:25;;;;;;;26.00;20.38;;;10.90;95.80;;;;;;4789373;29;20058;-81
2021/10/09 03:00:50;;;;;;;24.17;19.63;;;10.90;95.70;;;;;;4790048;29;20082;-82
2021/10/09 03:03:16;;;;;;;23.00;19.25;;;10.90;95.70;;;;;;4790299;29;20483;-81
2021/10/09 03:05:41;;;;;;;23.48;19.45;;;10.90;95.80;;;;;;4788386;29;20086;-81
2021/10/09 03:08:09;;;;;;;21.75;19.23;;;10.90;95.80;;;;;;4790249;29;20043;-81
2021/10/09 03:10:35;;;;;;;24.65;20.10;;;10.90;95.90;;;;;;4789113;29;20055;-81
2021/10/09 03:13:00;;;;;;;24.63;19.95;;;10.90;95.90;;;;;;4789425;29;20548;-81
2021/10/09 03:15:26;;;;;;;25.38;21.02;;;10.90;95.90;;;;;;4788806;29;20047;-81
2021/10/09 03:17:52;;;;;;;25.25;20.38;;;10.90;95.90;;;;;;4789354;29;20047;-81
2021/10/09 03:20:17;;;;;;;24.33;20.10;;;10.90;95.90;;;;;;4789484;29;20058;-81
2021/10/09 03:22:44;;;;;;;24.52;19.98;;;10.90;95.90;;;;;;4788831;29;20073;-81
2021/10/09 03:25:11;;;;;;;25.63;20.30;;;10.90;95.70;;;;;;4788576;29;20058;-81
2021/10/09 03:27:36;;;;;;;30.00;21.73;;;10.90;95.80;;;;;;4789174;29;20039;-80
2021/10/09 03:30:04;;;;;;;26.60;21.45;;;10.90;95.60;;;;;;4789649;29;20504;-80
2021/10/09 03:32:29;;;;;;;25.30;19.85;;;10.90;95.60;;;;;;4788385;29;20055;-81
2021/10/09 03:34:55;;;;;;;27.52;21.00;;;10.90;95.60;;;;;;4789850;29;20054;-80
2021/10/09 03:37:21;;;;;;;26.08;21.73;;;11.00;95.60;;;;;;4789385;29;20094;-80
2021/10/09 03:39:49;;;;;;;31.65;21.48;;;10.90;95.60;;;;;;4771085;30;20412;-80
2021/10/09 03:42:25;;;;;;;27.63;21.90;;;10.90;95.70;;;;;;4783063;29;20059;-81
2021/10/09 03:44:57;;;;;;;30.77;22.42;;;10.90;95.80;;;;;;4789509;29;20078;-80
2021/10/09 03:50:18;;;;;;;27.05;22.02;;;10.90;95.70;;;;;;4789528;29;20149;-80
2021/10/09 03:52:44;;;;;;;26.70;20.92;;;11.00;95.70;;;;;;4789250;29;20138;-81
2021/10/09 03:55:14;;;;;;;28.35;22.25;;;10.90;95.70;;;;;;4788465;29;20047;-80
2021/10/09 03:57:40;;;;;;;28.38;22.65;;;11.00;95.80;;;;;;4788446;29;20047;-81
2021/10/09 04:00:08;;;;;;;31.15;23.05;;;11.00;95.80;;;;;;4788799;29;20462;-80
2021/10/09 04:02:34;;;;;;;28.10;22.33;;;11.00;95.80;;;;;;4803341;29;20058;-80
2021/10/09 04:05:00;;;;;;;34.05;24.15;;;11.00;95.80;;;;;;4789394;29;20050;-81
2021/10/09 04:07:26;;;;;;;29.10;22.20;;;11.00;95.80;;;;;;4788727;29;20620;-81
2021/10/09 04:09:52;;;;;;;28.25;22.20;;;11.00;95.80;;;;;;4792677;29;20157;-81
2021/10/09 04:12:17;;;;;;;27.25;21.98;;;11.10;95.80;;;;;;4792073;29;20043;-81
2021/10/09 04:14:43;;;;;;;26.42;21.90;;;11.10;95.80;;;;;;4791562;29;20515;-81
2021/10/09 04:17:09;;;;;;;28.15;22.13;;;11.00;95.80;;;;;;4792688;29;20134;-80
2021/10/09 04:19:34;;;;;;;27.38;22.38;;;11.10;95.80;;;;;;4792928;29;20138;-80
2021/10/09 04:22:00;;;;;;;28.88;21.90;;;11.10;95.80;;;;;;4791092;29;20047;-80
2021/10/09 04:24:26;;;;;;;27.80;21.73;;;11.10;95.80;;;;;;4792447;29;20058;-81
2021/10/09 04:26:52;;;;;;;28.05;22.20;;;11.00;95.80;;;;;;4792121;29;20054;-81
2021/10/09 04:29:17;;;;;;;26.67;21.60;;;11.00;95.70;;;;;;4791183;29;20536;-81
2021/10/09 04:31:43;;;;;;;27.02;21.95;;;11.00;95.80;;;;;;4792663;29;20480;-80
2021/10/09 04:34:09;;;;;;;26.73;21.90;;;11.00;95.70;;;;;;4792418;29;20050;-81
2021/10/09 04:36:34;;;;;;;29.25;23.23;;;11.00;95.60;;;;;;4791402;29;20047;-81
2021/10/09 04:39:00;;;;;;;25.33;21.20;;;11.00;95.60;;;;;;4792368;29;20176;-82
2021/10/09 04:41:28;;;;;;;26.90;22.45;;;11.00;95.60;;;;;;4792156;29;20191;-81
2021/10/09 04:43:53;;;;;;;26.48;21.33;;;11.00;95.70;;;;;;4791758;29;20054;-81
2021/10/09 04:46:19;;;;;;;28.10;22.85;;;11.00;95.60;;;;;;4792030;29;20046;-82
2021/10/09 04:48:44;;;;;;;26.98;22.20;;;11.00;95.60;;;;;;4791563;29;20462;-82
2021/10/09 04:51:10;;;;;;;24.65;20.83;;;11.00;95.70;;;;;;4791865;29;20051;-80
2021/10/09 04:53:35;;;;;;;25.60;21.60;;;11.00;95.60;;;;;;4791173;29;20043;-81
2021/10/09 04:56:01;;;;;;;26.08;21.65;;;11.00;95.60;;;;;;4791920;29;20492;-80
2021/10/09 04:58:26;;;;;;;25.95;21.25;;;11.00;95.60;;;;;;4790477;29;20065;-80
2021/10/09 05:00:52;;;;;;;25.65;20.77;;;11.00;95.60;;;;;;4791467;29;20057;-80
2021/10/09 05:03:19;;;;;;;26.92;22.00;;;11.00;95.60;;;;;;4791987;29;20404;-80
2021/10/09 05:05:45;;;;;;;25.00;21.50;;;11.00;95.70;;;;;;4790863;29;20047;-80
2021/10/09 05:08:11;;;;;;;23.92;20.55;;;11.00;95.60;;;;;;4790871;29;20043;-81
2021/10/09 05:10:38;;;;;;;24.77;21.58;;;11.00;95.60;;;;;;4790621;29;20070;-81
2021/10/09 05:13:04;;;;;;;25.42;21.33;;;11.00;95.60;;;;;;4790777;29;20476;-80
2021/10/09 05:15:30;;;;;;;27.35;21.30;;;11.00;95.60;;;;;;4791232;29;20581;-80
2021/10/09 05:17:55;;;;;;;26.70;20.70;;;11.00;95.70;;;;;;4791167;29;20150;-80
2021/10/09 05:20:21;;;;;;;26.88;21.25;;;11.00;95.70;;;;;;4787832;29;20047;-81
2021/10/09 05:22:47;;;;;;;26.10;22.13;;;11.00;95.60;;;;;;4773552;29;20047;-80
2021/10/09 05:25:12;;;;;;;24.13;20.27;;;11.00;95.60;;;;;;4785775;29;20449;-80
2021/10/09 05:27:41;;;;;;;25.25;20.95;;;11.00;95.60;;;;;;4791023;29;20449;-81
2021/10/09 05:30:10;;;;;;;23.38;19.98;;;11.00;95.60;;;;;;4807299;29;20444;-80
2021/10/09 05:32:46;;;;;;;23.05;19.52;;;11.00;95.70;;;;;;4790358;29;20050;-80
2021/10/09 05:35:12;;;;;;;25.50;20.92;;;11.00;95.80;;;;;;4791676;29;20500;-80
2021/10/09 05:37:38;;;;;;;35.33;22.00;;;11.00;95.70;;;;;;4791369;29;20425;-80
2021/10/09 05:40:04;;;;;;;23.77;20.40;;;11.00;95.70;;;;;;4790839;29;20544;-81
2021/10/09 05:42:29;;;;;;;26.15;21.23;;;11.00;95.70;;;;;;4791124;29;20050;-81
2021/10/09 05:44:56;;;;;;;25.05;20.98;;;11.00;95.70;;;;;;4790950;29;20051;-81
2021/10/09 05:47:22;;;;;;;23.95;20.17;;;11.00;95.80;;;;;;4790864;29;20428;-80
2021/10/09 05:49:52;;;;;;;23.23;19.38;;;11.00;95.80;;;;;;4790095;29;20047;-81
2021/10/09 05:52:55;;;;;;;23.83;20.40;;;11.00;95.70;;;;;;4791416;29;20115;-81
2021/10/09 05:55:20;;;;;;;23.33;19.83;;;11.00;95.80;;;;;;4802036;29;20058;-81
2021/10/09 06:25:39;;;;;;;25.83;22.13;;;10.90;95.70;;;;;;4790387;29;20135;-81
2021/10/09 06:31:19;;;;;;;25.40;20.95;;;10.90;95.80;;;;;;4788886;29;20087;-81
2021/10/09 06:47:13;;;;;;;28.33;22.73;;;10.90;95.80;;;;;;4789326;29;20133;-82
2021/10/09 07:00:23;;;;;;;37.60;26.08;;;10.90;95.70;;;;;;4789433;29;20141;-81
2021/10/09 07:02:48;;;;;;;31.90;25.17;;;11.00;95.70;;;;;;4789067;29;20182;-82
2021/10/09 07:05:15;;;;;;;33.67;25.85;;;11.00;95.80;;;;;;4789685;29;20043;-84
2021/10/09 07:07:44;;;;;;;34.17;26.95;;;11.00;95.80;;;;;;4790225;29;20057;-84
2021/10/09 07:10:10;;;;;;;34.67;26.38;;;11.00;95.80;;;;;;4789514;29;20050;-85
2021/10/09 07:12:37;;;;;;;32.55;24.90;;;11.00;95.80;;;;;;4789932;29;20508;-82
2021/10/09 07:15:04;;;;;;;34.17;25.73;;;11.00;95.80;;;;;;4789131;29;20065;-82
2021/10/09 07:17:30;;;;;;;38.95;27.83;;;11.00;95.80;;;;;;4788750;29;20137;-83
2021/10/09 07:19:55;;;;;;;37.08;27.30;;;11.00;95.80;;;;;;4789126;29;20141;-82
2021/10/09 07:22:21;;;;;;;39.80;28.23;;;11.00;95.80;;;;;;4789340;29;20039;-82
2021/10/09 07:24:47;;;;;;;37.67;27.40;;;11.00;95.70;;;;;;4787758;29;20054;-82
2021/10/09 07:27:12;;;;;;;46.25;32.33;;;11.00;95.80;;;;;;4789955;29;20160;-81
2021/10/09 07:29:38;;;;;;;46.85;32.75;;;11.10;95.80;;;;;;4789471;29;20074;-82
2021/10/09 07:32:09;;;;;;;36.80;27.02;;;11.10;95.90;;;;;;4778211;29;20492;-80
2021/10/09 07:35:17;;;;;;;42.17;28.88;;;11.00;95.80;;;;;;4770390;29;20099;-80
2021/10/09 07:37:56;;;;;;;40.67;29.20;;;11.00;95.80;;;;;;4788736;29;20057;-81
2021/10/09 07:40:29;;;;;;;37.35;28.10;;;11.00;95.70;;;;;;4765278;29;20065;-81
2021/10/09 07:43:13;;;;;;;37.08;27.15;;;11.10;95.80;;;;;;4789698;29;20104;-81
2021/10/09 07:45:42;;;;;;;38.38;27.95;;;11.00;95.60;;;;;;4795358;29;20043;-81
2021/10/09 07:48:19;;;;;;;39.83;29.55;;;11.10;95.60;;;;;;4793609;29;20389;-81
2021/10/09 07:50:46;;;;;;;39.38;28.65;;;11.00;95.70;;;;;;4793629;29;20515;-81
2021/10/09 07:53:14;;;;;;;40.42;28.75;;;11.10;95.70;;;;;;4792690;29;20442;-80
2021/10/09 07:55:49;;;;;;;39.97;29.52;;;11.10;95.70;;;;;;4793260;29;20084;-81
2021/10/09 07:58:24;;;;;;;40.20;28.77;;;11.10;95.70;;;;;;4792732;29;20580;-81
2021/10/09 08:00:53;;;;;;;41.13;28.65;;;11.10;95.70;;;;;;4805094;29;20197;-81
2021/10/09 08:03:25;;;;;;;42.55;29.80;;;11.10;95.70;;;;;;4807868;29;20058;-81
2021/10/09 08:05:52;;;;;;;42.90;29.92;;;11.10;95.70;;;;;;4793252;29;20057;-81
2021/10/09 08:08:22;;;;;;;47.70;32.13;;;11.10;95.70;;;;;;4791692;29;20059;-81
2021/10/09 08:10:48;;;;;;;46.30;29.92;;;11.10;95.80;;;;;;4793157;29;20062;-82
2021/10/09 08:13:18;;;;;;;48.47;32.58;;;11.10;95.70;;;;;;4787775;29;20076;-81
2021/10/09 08:15:55;;;;;;;49.58;33.47;;;11.20;95.70;;;;;;4774720;29;20063;-81
2021/10/09 08:18:24;;;;;;;41.20;30.33;;;11.10;95.60;;;;;;4787741;29;20054;-82
2021/10/09 08:20:57;;;;;;;45.80;31.85;;;11.10;95.60;;;;;;4789132;29;20062;-81
2021/10/09 08:23:27;;;;;;;40.97;30.60;;;11.10;95.60;;;;;;4792721;29;20415;-81
2021/10/09 08:40:25;;;;;;;47.53;31.98;;;11.30;95.70;;;;;;4792608;29;20054;-81
2021/10/09 08:42:50;;;;;;;41.55;30.35;;;11.30;95.70;;;;;;4791442;29;20122;-82
2021/10/09 08:45:19;;;;;;;40.00;29.33;;;11.30;95.80;;;;;;4789276;29;20134;-82
2021/10/09 08:47:51;;;;;;;46.67;32.20;;;11.30;95.70;;;;;;4791882;29;20050;-81
2021/10/09 08:50:17;;;;;;;42.60;28.60;;;11.30;95.60;;;;;;4790857;29;20096;-82
2021/10/09 08:53:07;;;;;;;41.70;30.15;;;11.30;95.60;;;;;;4790477;29;20457;-82
2021/10/09 08:55:35;;;;;;;42.92;29.15;;;11.40;95.60;;;;;;4790157;29;20452;-82
2021/10/09 08:58:04;;;;;;;42.35;30.48;;;11.40;95.70;;;;;;4792238;29;20051;-82
2021/10/09 09:00:42;;;;;;;43.08;31.75;;;11.40;95.60;;;;;;4790701;29;20496;-82
2021/10/09 09:03:13;;;;;;;39.75;29.90;;;11.50;95.70;;;;;;4789276;29;20495;-82
2021/10/09 09:08:32;;;;;;;38.55;28.35;;;11.50;95.70;;;;;;4792039;29;20066;-82
2021/10/09 09:30:24;;;;;;;39.97;29.73;;;11.90;95.60;;;;;;4790792;29;20577;-84
2021/10/09 09:30:57;;;;;;;42.20;31.08;;;11.90;95.50;;;;;;4797883;29;20047;-84
2021/10/09 09:36:09;;;;;;;37.58;29.17;;;12.00;95.40;;;;;;4791264;29;20058;-82
2021/10/09 09:39:04;;;;;;;39.58;28.85;;;12.10;95.40;;;;;;4789957;29;20051;-82
2021/10/09 09:41:31;;;;;;;39.45;28.77;;;12.10;95.30;;;;;;4791040;29;20388;-82
2021/10/09 09:43:58;;;;;;;37.55;28.92;;;12.20;95.30;;;;;;4790805;29;20063;-84
2021/10/09 09:46:26;;;;;;;41.38;29.38;;;12.30;95.30;;;;;;4789913;29;20051;-83
2021/10/09 09:48:52;;;;;;;41.58;30.50;;;12.30;95.30;;;;;;4790724;29;20050;-82
2021/10/09 09:51:22;;;;;;;38.17;28.00;;;12.40;95.20;;;;;;4790641;29;20050;-84
2021/10/09 09:53:49;;;;;;;39.70;29.63;;;12.40;95.10;;;;;;4789307;29;20043;-86
2021/10/09 09:56:17;;;;;;;39.20;29.63;;;12.50;95.10;;;;;;4791906;29;20047;-83
2021/10/09 09:58:45;;;;;;;38.03;28.88;;;12.50;95.10;;;;;;4790265;29;20110;-84
2021/10/09 10:01:12;;;;;;;38.95;28.45;;;12.50;95.00;;;;;;4786567;29;20073;-84
2021/10/09 10:03:46;;;;;;;37.90;27.52;;;12.60;94.70;;;;;;4788329;29;20059;-82
2021/10/09 10:06:11;;;;;;;;;;;12.70;94.40;;;;;;4786979;29;20051;-81
2021/10/09 10:08:41;;;;;;;42.63;27.63;;;12.70;94.40;;;;;;4800268;29;19932;-84
2021/10/09 10:11:11;;;;;;;37.60;27.17;;;12.70;94.90;;;;;;4791638;29;20047;-83
2021/10/09 10:13:38;;;;;;;40.20;29.13;;;12.80;94.60;;;;;;4802721;29;20047;-83
2021/10/09 10:16:09;;;;;;;36.45;28.08;;;12.90;94.70;;;;;;4789224;29;20046;-82
2021/10/09 10:18:44;;;;;;;36.20;27.13;;;12.90;94.70;;;;;;4789081;29;20088;-82
2021/10/09 10:21:36;;;;;;;39.15;28.10;;;13.00;94.70;;;;;;4786537;30;20045;-81
2021/10/09 10:24:01;;;;;;;37.90;28.15;;;13.00;94.50;;;;;;4780354;29;20051;-83
2021/10/09 10:26:31;;;;;;;36.28;27.13;;;13.10;94.60;;;;;;4789175;29;20061;-81
2021/10/09 10:28:56;;;;;;;33.38;26.50;;;13.20;94.70;;;;;;4789368;29;20548;-82
2021/10/09 10:31:24;;;;;;;38.33;26.88;;;13.20;94.80;;;;;;4790015;29;20056;-82
2021/10/09 10:33:57;;;;;;;36.13;27.25;;;13.30;94.60;;;;;;4789710;29;20504;-83
2021/10/09 10:36:37;;;;;;;37.05;26.35;;;13.40;94.70;;;;;;4786624;30;20408;-83
2021/10/09 10:39:03;;;;;;;37.58;26.52;;;13.50;94.30;;;;;;4786986;30;20080;-82
2021/10/09 10:42:04;;;;;;;35.40;26.05;;;13.50;94.40;;;;;;4785161;29;20051;-82
2021/10/09 10:45:19;;;;;;;38.13;26.23;;;13.60;94.30;;;;;;4776743;29;20120;-83
2021/10/09 10:53:47;;;;;;;34.25;25.60;;;13.80;94.20;;;;;;4775932;29;20133;-82
2021/10/09 10:56:18;;;;;;;33.58;24.08;;;13.80;94.30;;;;;;4788958;29;20389;-83
2021/10/09 10:59:59;;;;;;;39.13;25.92;;;13.90;94.50;;;;;;4790159;29;20059;-82
2021/10/09 11:02:50;;;;;;;36.78;25.35;;;14.00;94.10;;;;;;4789349;29;20139;-83
2021/10/09 11:05:28;;;;;;;32.00;25.45;;;14.10;94.00;;;;;;4790341;29;20119;-83
2021/10/09 11:08:15;;;;;;;34.22;25.60;;;14.20;94.00;;;;;;4789579;29;20050;-83
2021/10/09 11:10:56;;;;;;;37.42;25.17;;;14.20;94.20;;;;;;4788985;29;20043;-83
2021/10/09 11:19:53;;;;;;;35.00;24.60;;;14.40;92.60;;;;;;4757921;29;20490;-83
2021/10/09 11:22:22;;;;;;;33.47;23.80;;;14.50;92.70;;;;;;4789350;29;20427;-82
2021/10/09 11:24:52;;;;;;;36.10;23.08;;;14.50;92.40;;;;;;4809972;29;20053;-82
2021/10/09 11:27:19;;;;;;;27.95;22.88;;;14.60;92.50;;;;;;4794588;29;20078;-84
2021/10/09 11:30:02;;;;;;;29.50;23.13;;;14.70;92.80;;;;;;4792488;29;20051;-84
2021/10/09 11:32:40;;;;;;;33.00;22.95;;;14.70;92.50;;;;;;4789796;29;20141;-89
2021/10/09 11:35:13;;;;;;;29.63;22.85;;;14.80;93.00;;;;;;4792298;29;20040;-90
2021/10/09 11:37:50;;;;;;;27.90;22.30;;;14.90;93.10;;;;;;4791057;29;20051;-87
2021/10/09 11:40:33;;;;;;;31.27;23.33;;;15.00;93.00;;;;;;4790224;29;20550;-84
2021/10/09 11:43:12;;;;;;;27.83;22.63;;;15.00;92.90;;;;;;4772713;30;20059;-85
2021/10/09 11:45:54;;;;;;;28.65;22.42;;;15.10;93.20;;;;;;4772818;30;20409;-85
2021/10/09 11:54:19;;;;;;;31.90;20.85;;;15.30;93.10;;;;;;4775960;30;20428;-85
2021/10/09 11:56:46;;;;;;;29.65;22.25;;;15.40;92.20;;;;;;4775615;30;20428;-85
2021/10/09 11:59:13;;;;;;;27.85;20.90;;;15.40;92.10;;;;;;4771871;30;20406;-85
2021/10/09 12:01:43;;;;;;;27.10;20.45;;;15.50;92.30;;;;;;4773838;30;20134;-85
2021/10/09 12:04:19;;;;;;;28.27;19.95;;;15.60;92.20;;;;;;4772514;30;20052;-86
2021/10/09 12:06:55;;;;;;;30.25;20.73;;;15.60;91.50;;;;;;4773914;30;20108;-86
2021/10/09 12:09:42;;;;;;;25.45;19.45;;;15.60;92.00;;;;;;4772362;30;20048;-85
2021/10/09 12:12:16;;;;;;;24.80;19.38;;;15.70;91.40;;;;;;4772815;30;20059;-85
2021/10/09 12:14:42;;;;;;;28.27;19.60;;;15.70;91.40;;;;;;4772960;30;20054;-85
2021/10/09 12:17:09;;;;;;;26.80;17.83;;;15.80;91.20;;;;;;4771740;30;20048;-85
2021/10/09 12:19:34;;;;;;;28.20;18.35;;;15.80;90.40;;;;;;4772054;30;20063;-86
2021/10/09 12:22:06;;;;;;;25.05;18.58;;;15.80;90.30;;;;;;4771987;30;20044;-85
2021/10/09 12:24:48;;;;;;;27.20;17.80;;;15.90;91.00;;;;;;4772673;30;20501;-84
2021/10/09 12:27:22;;;;;;;26.95;16.83;;;16.00;90.70;;;;;;4771308;30;20083;-84
2021/10/09 12:30:04;;;;;;;24.05;17.77;;;16.00;89.40;;;;;;4773623;29;20057;-84
2021/10/09 12:32:41;;;;;;;24.50;18.17;;;16.00;90.50;;;;;;4772082;30;20142;-84
2021/10/09 12:35:16;;;;;;;27.65;18.27;;;16.00;90.80;;;;;;4771306;30;20549;-84
2021/10/09 12:37:58;;;;;;;23.80;16.98;;;16.10;90.70;;;;;;4773113;30;20052;-84
2021/10/09 12:40:26;;;;;;;21.75;16.45;;;16.20;90.30;;;;;;4771905;30;20043;-84
2021/10/09 12:42:58;;;;;;;22.52;17.55;;;16.20;90.10;;;;;;4771167;30;20048;-84
2021/10/09 12:45:25;;;;;;;30.63;16.80;;;16.30;90.60;;;;;;4771509;30;20059;-84
2021/10/09 12:47:50;;;;;;;23.90;17.30;;;16.30;90.60;;;;;;4774089;30;20370;-84
2021/10/09 12:50:18;;;;;;;22.63;16.40;;;16.30;90.80;;;;;;4771547;30;20040;-84
2021/10/09 12:52:47;;;;;;;23.17;15.23;;;16.40;90.60;;;;;;4773822;29;20505;-84
2021/10/09 12:55:14;;;;;;;24.20;15.55;;;16.40;89.50;;;;;;4770886;30;20056;-84
2021/10/09 12:58:00;;;;;;;22.10;15.80;;;16.50;88.60;;;;;;4772827;30;20058;-84
2021/10/09 13:00:27;;;;;;;22.55;16.02;;;16.50;89.60;;;;;;4771306;30;20452;-84
2021/10/09 13:02:57;;;;;;;21.45;16.48;;;16.50;90.30;;;;;;4775089;30;20047;-83
2021/10/09 13:05:28;;;;;;;21.88;16.23;;;16.60;90.80;;;;;;4788543;29;20516;-84
2021/10/09 13:07:56;;;;;;;21.83;15.57;;;16.60;90.90;;;;;;4791244;29;20125;-84
2021/10/09 13:10:22;;;;;;;22.23;15.55;;;16.70;90.60;;;;;;4791034;29;20050;-84
2021/10/09 13:12:49;;;;;;;21.17;15.65;;;16.70;90.90;;;;;;4791586;29;20148;-83
2021/10/09 13:15:19;;;;;;;20.02;14.30;;;16.80;91.20;;;;;;4788415;30;20044;-83
2021/10/09 13:17:50;;;;;;;18.25;15.02;;;16.80;90.70;;;;;;4789704;29;20062;-84
2021/10/09 13:20:16;;;;;;;20.75;14.68;;;16.90;91.20;;;;;;4788479;30;20043;-84
2021/10/09 13:22:45;;;;;;;21.98;15.10;;;16.90;90.50;;;;;;4789966;29;20493;-84
2021/10/09 13:25:11;;;;;;;20.42;13.35;;;17.00;90.50;;;;;;4787976;29;20163;-85
2021/10/09 13:27:36;;;;;;;22.00;15.00;;;17.00;90.00;;;;;;4790020;29;20121;-84
2021/10/09 13:30:03;;;;;;;22.55;13.45;;;17.00;90.60;;;;;;4787118;30;20058;-84
2021/10/09 13:32:29;;;;;;;17.67;12.95;;;17.10;89.30;;;;;;4787712;29;20055;-84
2021/10/09 13:34:54;;;;;;;19.85;12.43;;;17.10;88.40;;;;;;4787931;29;20047;-84
2021/10/09 13:37:21;;;;;;;18.13;13.15;;;17.10;86.60;;;;;;4786610;29;20070;-84
2021/10/09 13:39:47;;;;;;;19.67;13.90;;;17.10;86.90;;;;;;4795131;29;20051;-85
2021/10/09 13:42:13;;;;;;;19.50;13.25;;;17.10;87.90;;;;;;4786518;29;20043;-84
2021/10/09 13:44:39;;;;;;;19.20;13.13;;;17.20;86.80;;;;;;4787395;29;20091;-84
2021/10/09 13:47:04;;;;;;;19.08;13.65;;;17.20;88.10;;;;;;4788843;29;20051;-84
2021/10/09 13:49:31;;;;;;;19.38;14.00;;;17.20;88.70;;;;;;4787124;29;20485;-85
2021/10/09 13:51:57;;;;;;;16.25;12.75;;;17.30;90.00;;;;;;4785617;29;20070;-84
2021/10/09 13:54:22;;;;;;;20.13;13.10;;;17.30;90.20;;;;;;4788572;29;20477;-85
2021/10/09 13:56:48;;;;;;;22.15;13.50;;;17.30;87.60;;;;;;4798660;29;20478;-85
2021/10/09 13:59:14;;;;;;;15.65;13.35;;;17.30;88.50;;;;;;4786752;29;20470;-85
2021/10/09 14:01:42;;;;;;;17.40;13.32;;;17.30;89.80;;;;;;4788113;29;20051;-84
2021/10/09 14:04:07;;;;;;;18.13;12.88;;;17.30;90.30;;;;;;4786905;29;20043;-85
2021/10/09 14:06:33;;;;;;;17.65;12.88;;;17.40;90.40;;;;;;4786395;29;20047;-84
2021/10/09 14:08:58;;;;;;;18.67;12.30;;;17.40;88.70;;;;;;4786902;29;20062;-85
2021/10/09 14:15:34;;;;;;;18.13;13.10;;;17.30;85.50;;;;;;4819458;29;20051;-84
2021/10/09 14:18:00;;;;;;;16.67;12.10;;;17.30;88.40;;;;;;4789708;29;20134;-84
2021/10/09 14:20:26;;;;;;;16.13;12.63;;;17.40;89.70;;;;;;4788776;29;20188;-84
2021/10/09 14:22:51;;;;;;;21.85;12.73;;;17.40;89.30;;;;;;4789533;29;20051;-84
2021/10/09 14:25:17;;;;;;;16.92;12.65;;;17.40;87.70;;;;;;4790065;29;20098;-84
2021/10/09 14:27:46;;;;;;;17.13;12.13;;;17.50;89.40;;;;;;4805292;29;20391;-85
2021/10/09 14:31:01;;;;;;;16.80;12.63;;;17.50;89.20;;;;;;4806068;29;20069;-85
2021/10/09 14:42:13;;;;;;;15.55;12.07;;;17.50;90.40;;;;;;4693304;30;20053;-84
2021/10/09 14:45:32;;;;;;;22.05;12.60;;;17.50;89.40;;;;;;4703138;30;20083;-84
2021/10/09 14:48:34;;;;;;;15.13;11.77;;;17.60;89.80;;;;;;4695400;30;20120;-84
2021/10/09 15:17:42;;;;;;;16.90;11.38;;;17.70;90.50;;;;;;4803840;29;20050;-84
2021/10/09 15:20:08;;;;;;;16.73;10.60;;;17.70;90.60;;;;;;4789138;29;20057;-83
2021/10/09 15:22:34;;;;;;;21.23;11.23;;;17.70;90.70;;;;;;4788507;29;20415;-82
2021/10/09 15:25:00;;;;;;;14.23;10.27;;;17.70;88.00;;;;;;4788831;29;20054;-84